Time;durP1;ratioP1;P1;durP2;ratioP2;P2;SDS_P1;SDS_P2;PMS_P1;PMS_P2;Temp;Humidity;BMP_temperature;BMP_pressure;BME280_temperature;BME280_humidity;BME280_pressure;Samples;Min_cycle;Max_cycle;Signal;HPM_P1;HPM_P2
2021/09/26 00:01:02;;;;;;;9.40;7.87;;;14.20;1.00;;;;;;5058797;28;20462;-55
2021/09/26 00:03:30;;;;;;;7.90;7.10;;;14.20;1.00;;;;;;5058130;28;20466;-55
2021/09/26 00:05:57;;;;;;;9.00;8.20;;;14.20;1.00;;;;;;5058318;28;20533;-50
2021/09/26 00:08:24;;;;;;;8.50;7.70;;;14.10;1.00;;;;;;5058301;28;20867;-52
2021/09/26 00:10:55;;;;;;;10.07;8.90;;;14.10;1.00;;;;;;5058075;28;20466;-51
2021/09/26 00:13:25;;;;;;;10.10;7.87;;;14.20;1.00;;;;;;5058404;28;20485;-54
2021/09/26 00:15:55;;;;;;;9.27;8.37;;;14.20;1.00;;;;;;5058305;28;20465;-56
2021/09/26 00:18:26;;;;;;;8.03;7.33;;;14.20;1.00;;;;;;5058374;28;20462;-56
2021/09/26 00:20:53;;;;;;;9.30;8.40;;;14.20;1.00;;;;;;5058428;28;20771;-53
2021/09/26 00:23:20;;;;;;;8.70;7.83;;;14.20;1.00;;;;;;5057770;28;20900;-56
2021/09/26 00:25:51;;;;;;;8.23;7.43;;;14.20;1.00;;;;;;5044903;28;20558;-53
2021/09/26 00:28:24;;;;;;;8.60;7.90;;;14.30;1.00;;;;;;5038257;28;20908;-57
2021/09/26 00:30:51;;;;;;;7.93;7.23;;;14.30;1.00;;;;;;5038171;28;20467;-54
2021/09/26 00:33:18;;;;;;;8.47;7.67;;;14.40;1.00;;;;;;5036824;28;20487;-57
2021/09/26 00:35:46;;;;;;;9.50;8.60;;;14.40;1.00;;;;;;5037962;28;20462;-54
2021/09/26 00:38:13;;;;;;;9.20;8.40;;;14.40;1.00;;;;;;5037580;28;20502;-55
2021/09/26 00:40:43;;;;;;;9.20;8.40;;;14.40;1.00;;;;;;5038059;28;20463;-55
2021/09/26 00:43:10;;;;;;;8.87;8.07;;;14.40;1.00;;;;;;5038385;28;20521;-51
2021/09/26 00:45:39;;;;;;;8.87;8.07;;;14.40;1.00;;;;;;5037641;28;20982;-54
2021/09/26 00:48:06;;;;;;;8.07;7.30;;;14.50;1.00;;;;;;5037715;28;20467;-55
2021/09/26 00:50:34;;;;;;;9.00;8.20;;;14.60;1.00;;;;;;5037809;28;20475;-51
2021/09/26 00:53:01;;;;;;;8.20;7.50;;;14.70;99.90;;;;;;5037597;28;20895;-54
2021/09/26 00:55:32;;;;;;;9.80;8.80;;;14.80;99.90;;;;;;5037703;28;20471;-49
2021/09/26 00:58:01;;;;;;;10.17;9.17;;;14.80;99.90;;;;;;5037491;28;20471;-54
2021/09/26 01:00:29;;;;;;;9.50;8.70;;;14.70;99.90;;;;;;5037543;28;20462;-54
2021/09/26 01:02:57;;;;;;;9.13;8.30;;;14.70;99.90;;;;;;5037282;28;20467;-56
2021/09/26 01:05:27;;;;;;;9.07;8.13;;;14.60;1.00;;;;;;5037664;28;20893;-54
2021/09/26 01:08:05;;;;;;;8.70;7.90;;;14.70;1.00;;;;;;5037167;28;20535;-53
2021/09/26 01:10:41;;;;;;;9.77;8.97;;;14.60;1.00;;;;;;5037322;28;20467;-54
2021/09/26 01:13:20;;;;;;;9.30;8.40;;;14.70;1.00;;;;;;5048189;28;20497;-53
2021/09/26 01:15:59;;;;;;;9.47;8.40;;;14.80;99.90;;;;;;5057388;28;20453;-48
2021/09/26 01:18:36;;;;;;;9.27;8.40;;;14.80;99.90;;;;;;5057541;28;20461;-51
2021/09/26 01:21:10;;;;;;;10.00;9.00;;;14.90;99.90;;;;;;5057379;28;20470;-56
2021/09/26 01:24:10;;;;;;;8.23;7.43;;;14.90;99.90;;;;;;5056930;28;20523;-52
2021/09/26 01:26:46;;;;;;;8.43;7.63;;;14.90;99.90;;;;;;5057567;28;20494;-54
2021/09/26 01:29:58;;;;;;;8.77;8.07;;;14.90;99.90;;;;;;5057289;28;20519;-50
2021/09/26 01:32:29;;;;;;;8.10;7.40;;;14.80;99.90;;;;;;4983449;28;20571;-57
2021/09/26 01:34:59;;;;;;;9.43;8.00;;;14.90;99.90;;;;;;5050681;28;20950;-50
2021/09/26 01:37:33;;;;;;;9.07;8.00;;;14.90;99.90;;;;;;5056944;28;20504;-52
2021/09/26 01:40:06;;;;;;;9.20;7.57;;;15.00;99.90;;;;;;5057265;28;20458;-53
2021/09/26 01:42:37;;;;;;;8.83;8.03;;;15.10;99.90;;;;;;5058117;28;20461;-53
2021/09/26 01:45:10;;;;;;;9.30;8.40;;;15.20;57.50;;;;;;5048419;28;20463;-55
2021/09/26 01:47:44;;;;;;;8.67;7.93;;;15.20;11.80;;;;;;5036547;28;20548;-51
2021/09/26 01:50:15;;;;;;;8.33;7.57;;;15.30;1.00;;;;;;5036994;28;20466;-54
2021/09/26 01:52:46;;;;;;;7.50;6.80;;;15.30;1.00;;;;;;5037017;28;20500;-54
2021/09/26 01:55:14;;;;;;;8.37;7.57;;;15.30;1.00;;;;;;5036156;28;20516;-51
2021/09/26 01:57:42;;;;;;;9.17;7.33;;;15.30;1.00;;;;;;5037242;28;20525;-51
2021/09/26 02:00:11;;;;;;;8.50;7.70;;;15.40;1.00;;;;;;5036888;28;20812;-55
2021/09/26 02:02:43;;;;;;;9.17;7.03;;;15.50;1.00;;;;;;5044911;28;20751;-50
2021/09/26 02:05:11;;;;;;;8.10;7.20;;;15.70;1.00;;;;;;5056145;28;20493;-54
2021/09/26 02:07:42;;;;;;;8.73;7.93;;;15.80;1.00;;;;;;5055704;28;20486;-55
2021/09/26 02:10:12;;;;;;;8.27;7.50;;;15.80;1.00;;;;;;5055668;28;20465;-49
2021/09/26 02:12:39;;;;;;;8.70;6.80;;;15.90;1.00;;;;;;5053940;28;20461;-48
2021/09/26 02:15:12;;;;;;;11.00;7.77;;;15.90;1.00;;;;;;5058216;28;20450;-50
2021/09/26 02:17:44;;;;;;;7.70;6.97;;;15.90;1.00;;;;;;5055232;28;20477;-56
2021/09/26 02:20:14;;;;;;;9.23;7.33;;;16.00;1.00;;;;;;5058124;28;20450;-50
2021/09/26 02:22:43;;;;;;;7.93;7.23;;;16.00;1.00;;;;;;5060007;28;20901;-53
2021/09/26 02:25:13;;;;;;;7.70;7.00;;;16.00;1.00;;;;;;5060325;28;20442;-52
2021/09/26 02:27:40;;;;;;;8.37;7.67;;;16.00;1.00;;;;;;5059575;28;20499;-51
2021/09/26 02:30:09;;;;;;;7.70;6.90;;;16.10;1.00;;;;;;5057019;28;20461;-54
2021/09/26 02:32:36;;;;;;;8.53;7.63;;;16.10;1.00;;;;;;5059268;28;20485;-56
2021/09/26 02:35:06;;;;;;;8.70;7.90;;;16.20;1.00;;;;;;5059585;28;20893;-55
2021/09/26 02:37:34;;;;;;;8.50;7.70;;;16.20;1.00;;;;;;5059929;28;20753;-55
2021/09/26 02:40:02;;;;;;;8.20;7.43;;;16.20;1.00;;;;;;5059023;28;20916;-51
2021/09/26 02:42:37;;;;;;;8.67;7.87;;;16.20;1.00;;;;;;5059464;28;20458;-54
2021/09/26 02:45:07;;;;;;;8.77;7.70;;;16.20;1.00;;;;;;5060019;28;20461;-53
2021/09/26 02:47:41;;;;;;;8.60;7.80;;;16.30;1.00;;;;;;5057148;28;20950;-54
2021/09/26 02:50:11;;;;;;;7.73;6.90;;;16.30;1.00;;;;;;5058184;28;20777;-54
2021/09/26 02:52:39;;;;;;;7.80;7.00;;;16.30;1.00;;;;;;5059880;28;20458;-50
2021/09/26 02:55:09;;;;;;;8.23;7.50;;;16.30;1.00;;;;;;5060156;28;20466;-56
2021/09/26 02:57:37;;;;;;;8.67;7.87;;;16.30;1.00;;;;;;5059620;28;20462;-54
2021/09/26 03:00:05;;;;;;;8.40;7.60;;;16.30;1.00;;;;;;5060875;28;20529;-51
2021/09/26 03:02:34;;;;;;;8.53;7.70;;;16.30;1.00;;;;;;5059940;28;20473;-54
2021/09/26 03:05:05;;;;;;;8.83;8.13;;;16.30;1.00;;;;;;5060190;28;20545;-55
2021/09/26 03:07:33;;;;;;;8.10;7.40;;;16.30;1.00;;;;;;5059720;28;20524;-52
2021/09/26 03:10:00;;;;;;;9.40;8.17;;;16.30;1.00;;;;;;5059748;28;20835;-52
2021/09/26 03:12:27;;;;;;;8.40;7.60;;;16.30;1.00;;;;;;5058731;28;20458;-50
2021/09/26 03:14:54;;;;;;;9.63;8.20;;;16.30;1.00;;;;;;5059121;28;20457;-54
2021/09/26 03:17:22;;;;;;;7.97;7.17;;;16.30;1.00;;;;;;5059178;28;20458;-57
2021/09/26 03:19:49;;;;;;;10.00;8.40;;;16.40;1.00;;;;;;5057679;28;20478;-56
2021/09/26 03:22:16;;;;;;;8.53;7.73;;;16.40;1.00;;;;;;5058745;28;20455;-56
2021/09/26 03:24:44;;;;;;;8.63;7.87;;;16.40;1.00;;;;;;5058783;28;20745;-56
2021/09/26 03:27:13;;;;;;;8.90;8.00;;;16.40;1.00;;;;;;5057218;28;20490;-50
2021/09/26 03:29:42;;;;;;;8.67;7.90;;;16.40;1.00;;;;;;5059644;28;20803;-56
2021/09/26 03:32:09;;;;;;;7.83;7.17;;;16.40;1.00;;;;;;5059188;28;20466;-51
2021/09/26 03:34:37;;;;;;;8.40;7.53;;;16.40;1.00;;;;;;5059353;28;20466;-55
2021/09/26 03:37:05;;;;;;;9.43;8.63;;;16.40;1.00;;;;;;5059665;28;20469;-54
2021/09/26 03:39:32;;;;;;;8.93;8.03;;;16.40;1.00;;;;;;5058357;28;20462;-52
2021/09/26 03:42:01;;;;;;;8.67;7.77;;;16.40;1.00;;;;;;5059092;28;20751;-48
2021/09/26 03:44:28;;;;;;;8.40;7.60;;;16.40;1.00;;;;;;5058721;28;20468;-54
2021/09/26 03:46:55;;;;;;;8.60;7.80;;;16.30;1.00;;;;;;5059034;28;20502;-54
2021/09/26 03:49:24;;;;;;;8.77;7.97;;;16.30;1.00;;;;;;5059226;28;20466;-50
2021/09/26 03:51:51;;;;;;;8.87;7.67;;;16.30;1.00;;;;;;5058973;28;20497;-47
2021/09/26 03:54:20;;;;;;;8.50;7.60;;;16.20;1.00;;;;;;5058587;28;20825;-53
2021/09/26 03:56:48;;;;;;;8.00;7.20;;;16.10;1.00;;;;;;5058374;28;20462;-51
2021/09/26 03:59:18;;;;;;;9.17;8.37;;;16.10;1.00;;;;;;5058821;28;20936;-53
2021/09/26 04:01:47;;;;;;;8.30;7.60;;;16.10;1.00;;;;;;5058586;28;20473;-49
2021/09/26 04:04:15;;;;;;;8.67;7.70;;;16.10;1.00;;;;;;5058451;28;20466;-53
2021/09/26 04:06:42;;;;;;;7.23;6.50;;;16.10;1.00;;;;;;5058808;28;20473;-50
2021/09/26 04:09:09;;;;;;;8.33;7.40;;;16.20;1.00;;;;;;5058783;28;20462;-53
2021/09/26 04:11:36;;;;;;;7.97;7.27;;;16.30;1.00;;;;;;5058138;28;20473;-53
2021/09/26 04:14:04;;;;;;;9.03;7.97;;;16.30;1.00;;;;;;5042394;28;20463;-55
2021/09/26 04:16:33;;;;;;;8.87;8.07;;;16.30;1.00;;;;;;5038404;28;20463;-53
2021/09/26 04:19:00;;;;;;;7.97;7.17;;;16.30;1.00;;;;;;5038326;28;20455;-54
2021/09/26 04:21:28;;;;;;;9.07;8.17;;;16.40;1.00;;;;;;5037853;28;20463;-55
2021/09/26 04:23:55;;;;;;;7.57;6.87;;;16.40;1.00;;;;;;5038610;28;20899;-49
2021/09/26 04:26:22;;;;;;;8.10;7.40;;;16.50;1.00;;;;;;5038193;28;20471;-49
2021/09/26 04:28:49;;;;;;;8.20;7.50;;;16.50;1.00;;;;;;5038456;28;20494;-55
2021/09/26 04:31:17;;;;;;;10.30;7.73;;;16.50;1.00;;;;;;5038554;28;20470;-49
2021/09/26 04:33:45;;;;;;;8.00;7.30;;;16.40;1.00;;;;;;5038070;28;20491;-47
2021/09/26 04:36:13;;;;;;;9.07;8.27;;;16.40;1.00;;;;;;5037946;28;20448;-48
2021/09/26 04:38:40;;;;;;;8.10;7.47;;;16.40;1.00;;;;;;5037125;28;20458;-49
2021/09/26 04:41:07;;;;;;;8.10;7.40;;;16.40;1.00;;;;;;5038120;28;20470;-48
2021/09/26 04:43:34;;;;;;;7.77;7.07;;;16.40;1.00;;;;;;5037683;28;20516;-55
2021/09/26 04:46:01;;;;;;;8.57;7.83;;;16.40;1.00;;;;;;5037786;28;20438;-52
2021/09/26 04:48:28;;;;;;;8.40;7.70;;;16.30;1.00;;;;;;5037763;28;20498;-50
2021/09/26 04:50:57;;;;;;;8.13;7.43;;;16.30;1.00;;;;;;5038035;28;20810;-50
2021/09/26 04:53:24;;;;;;;8.23;7.53;;;16.20;1.00;;;;;;5038251;28;20816;-50
2021/09/26 04:55:51;;;;;;;10.27;9.20;;;16.20;1.00;;;;;;5037522;28;20481;-53
2021/09/26 04:58:18;;;;;;;8.87;8.07;;;16.20;1.00;;;;;;5037303;28;20466;-52
2021/09/26 05:00:50;;;;;;;8.90;8.03;;;16.20;1.00;;;;;;5037894;28;20499;-52
2021/09/26 05:03:17;;;;;;;8.27;7.57;;;16.10;1.00;;;;;;5037805;28;20773;-48
2021/09/26 05:05:44;;;;;;;7.60;6.90;;;16.10;1.00;;;;;;5037290;28;20843;-53
2021/09/26 05:08:13;;;;;;;8.43;7.50;;;16.20;1.00;;;;;;5037493;28;20786;-54
2021/09/26 05:10:40;;;;;;;8.77;7.97;;;16.30;1.00;;;;;;5037499;28;20482;-52
2021/09/26 05:13:09;;;;;;;8.90;8.20;;;16.30;1.00;;;;;;5042362;28;20786;-50
2021/09/26 05:15:36;;;;;;;9.93;7.37;;;16.30;1.00;;;;;;5037107;28;20499;-52
2021/09/26 05:18:05;;;;;;;7.40;6.70;;;16.40;1.00;;;;;;5038197;28;20463;-50
2021/09/26 05:20:32;;;;;;;8.83;7.80;;;16.40;1.00;;;;;;5037353;28;20463;-49
2021/09/26 05:22:59;;;;;;;8.80;8.00;;;16.40;1.00;;;;;;5037431;28;20467;-49
2021/09/26 05:25:27;;;;;;;8.80;7.90;;;16.40;1.00;;;;;;5052895;28;20486;-49
2021/09/26 05:27:55;;;;;;;9.73;8.00;;;16.50;1.00;;;;;;5055239;28;20494;-55
2021/09/26 05:30:22;;;;;;;9.17;8.17;;;16.40;1.00;;;;;;5042727;28;20468;-57
2021/09/26 05:32:52;;;;;;;9.07;8.17;;;16.50;1.00;;;;;;5049473;28;20496;-59
2021/09/26 05:35:19;;;;;;;9.93;8.70;;;16.50;1.00;;;;;;5038104;28;20508;-46
2021/09/26 05:37:46;;;;;;;9.37;8.40;;;16.50;1.00;;;;;;5037254;28;20913;-49
2021/09/26 05:40:14;;;;;;;10.00;9.10;;;16.40;30.90;;;;;;5037996;28;20474;-50
2021/09/26 05:42:43;;;;;;;8.60;7.90;;;16.40;99.90;;;;;;5037694;28;20940;-47
2021/09/26 05:45:10;;;;;;;9.37;8.50;;;16.30;99.90;;;;;;5036758;28;20513;-53
2021/09/26 05:47:37;;;;;;;9.80;8.90;;;16.20;99.90;;;;;;5036972;28;20926;-51
2021/09/26 05:50:09;;;;;;;9.67;8.77;;;16.20;1.00;;;;;;5036639;28;20470;-58
2021/09/26 05:52:36;;;;;;;10.23;9.33;;;16.20;1.00;;;;;;5037211;28;20463;-59
2021/09/26 05:55:04;;;;;;;9.53;8.73;;;16.20;4.00;;;;;;5037326;28;20573;-59
2021/09/26 05:57:31;;;;;;;10.43;9.40;;;16.20;99.90;;;;;;5036778;28;20463;-60
2021/09/26 06:00:02;;;;;;;9.77;8.93;;;16.20;99.90;;;;;;5040920;28;20470;-60
2021/09/26 06:02:29;;;;;;;8.73;7.93;;;16.30;99.90;;;;;;5055562;28;20467;-61
2021/09/26 06:04:57;;;;;;;9.80;8.90;;;16.40;1.00;;;;;;5037092;28;20463;-60
2021/09/26 06:07:24;;;;;;;10.80;9.80;;;16.40;1.00;;;;;;5037008;28;20887;-61
2021/09/26 06:09:51;;;;;;;9.73;8.77;;;16.40;1.00;;;;;;5036756;28;20486;-60
2021/09/26 06:12:18;;;;;;;9.87;8.97;;;16.40;1.00;;;;;;5036625;28;20769;-61
2021/09/26 06:14:45;;;;;;;10.50;9.57;;;16.40;1.00;;;;;;5036416;28;20460;-61
2021/09/26 06:17:15;;;;;;;9.80;8.80;;;16.50;1.00;;;;;;5036788;28;20746;-61
2021/09/26 06:19:42;;;;;;;10.77;9.83;;;16.60;1.00;;;;;;5051697;28;20462;-60
2021/09/26 06:22:13;;;;;;;10.83;8.63;;;16.60;99.90;;;;;;5056307;28;20466;-60
2021/09/26 06:24:40;;;;;;;10.53;9.33;;;16.60;99.90;;;;;;5038710;28;20474;-60
2021/09/26 06:27:07;;;;;;;9.80;9.00;;;16.60;99.90;;;;;;5042759;28;20896;-61
2021/09/26 06:29:34;;;;;;;10.23;9.33;;;16.70;99.90;;;;;;5054825;28;20823;-60
2021/09/26 06:32:01;;;;;;;9.37;8.50;;;16.80;99.90;;;;;;5043339;28;20906;-60
2021/09/26 06:34:30;;;;;;;10.10;9.27;;;16.90;23.50;;;;;;5053263;28;20474;-60
2021/09/26 06:37:00;;;;;;;9.73;8.83;;;17.00;1.00;;;;;;5054797;28;20465;-60
2021/09/26 06:39:28;;;;;;;9.13;8.23;;;17.10;1.00;;;;;;5056472;28;21289;-60
2021/09/26 06:41:55;;;;;;;10.40;9.40;;;17.10;1.00;;;;;;5056628;28;20466;-60
2021/09/26 06:44:22;;;;;;;11.47;10.37;;;17.00;99.90;;;;;;5056327;28;20470;-60
2021/09/26 06:46:52;;;;;;;10.50;9.40;;;17.10;1.00;;;;;;5043993;28;20475;-60
2021/09/26 06:49:20;;;;;;;10.03;9.13;;;17.10;1.00;;;;;;5055382;28;20525;-59
2021/09/26 06:51:48;;;;;;;11.67;10.50;;;17.20;1.00;;;;;;5055718;28;20454;-59
2021/09/26 06:54:15;;;;;;;9.67;8.63;;;17.30;1.00;;;;;;5037864;28;20475;-59
2021/09/26 06:56:42;;;;;;;11.20;10.20;;;17.40;1.00;;;;;;5042996;28;20493;-59
2021/09/26 06:59:09;;;;;;;10.70;9.73;;;17.40;99.90;;;;;;5056102;28;20766;-57
2021/09/26 07:01:36;;;;;;;9.97;9.17;;;17.60;99.90;;;;;;5042239;28;20463;-59
2021/09/26 07:04:04;;;;;;;10.50;9.03;;;17.70;99.90;;;;;;5053040;28;20466;-58
2021/09/26 07:06:31;;;;;;;9.93;9.07;;;17.90;99.90;;;;;;5058838;28;20462;-58
2021/09/26 07:09:09;;;;;;;9.20;8.37;;;18.20;99.90;;;;;;5059764;28;20497;-58
2021/09/26 07:11:36;;;;;;;10.70;9.80;;;18.50;94.00;;;;;;5039864;28;20761;-58
2021/09/26 07:14:03;;;;;;;10.17;9.23;;;18.70;1.00;;;;;;5039429;28;20462;-58
2021/09/26 07:16:31;;;;;;;10.07;9.07;;;19.20;21.90;;;;;;5039798;28;20458;-58
2021/09/26 07:18:58;;;;;;;9.63;8.73;;;19.60;1.00;;;;;;5039138;28;20466;-59
2021/09/26 07:21:25;;;;;;;9.43;8.53;;;19.70;1.00;;;;;;5039886;28;20462;-58
2021/09/26 07:23:52;;;;;;;9.20;8.30;;;19.90;1.00;;;;;;5038731;28;20471;-58
2021/09/26 07:26:25;;;;;;;8.70;7.80;;;20.00;1.00;;;;;;5038961;28;20897;-58
2021/09/26 07:28:52;;;;;;;10.60;9.60;;;19.90;1.00;;;;;;5039628;28;20465;-58
2021/09/26 07:31:23;;;;;;;12.43;9.10;;;19.60;1.00;;;;;;5041490;28;20917;-58
2021/09/26 07:33:53;;;;;;;9.40;8.60;;;19.40;1.00;;;;;;5056865;28;20581;-58
2021/09/26 07:36:20;;;;;;;9.30;8.50;;;19.10;1.00;;;;;;5059282;28;20501;-57
2021/09/26 07:38:47;;;;;;;9.80;8.53;;;18.90;1.00;;;;;;5059043;28;20469;-55
2021/09/26 07:41:17;;;;;;;10.10;9.23;;;18.70;1.00;;;;;;5059121;28;20454;-56
2021/09/26 07:43:46;;;;;;;10.07;9.10;;;18.50;1.00;;;;;;5057648;28;20480;-57
2021/09/26 07:46:17;;;;;;;11.30;10.30;;;18.40;1.00;;;;;;5056768;28;20462;-57
2021/09/26 07:48:44;;;;;;;10.37;9.47;;;18.30;25.00;;;;;;5058734;28;20494;-57
2021/09/26 07:51:11;;;;;;;11.23;8.80;;;18.40;31.30;;;;;;5058518;28;20461;-56
2021/09/26 07:53:38;;;;;;;10.93;9.67;;;18.40;44.30;;;;;;5058193;28;20730;-53
2021/09/26 07:56:06;;;;;;;10.07;9.27;;;18.40;23.70;;;;;;5056173;28;20791;-57
2021/09/26 07:58:33;;;;;;;10.37;9.47;;;18.40;59.80;;;;;;5056421;28;20897;-57
2021/09/26 08:01:05;;;;;;;11.03;10.07;;;18.40;58.40;;;;;;5051573;28;20749;-56
2021/09/26 08:03:37;;;;;;;11.33;10.27;;;18.60;82.30;;;;;;5058191;28;20461;-54
2021/09/26 08:06:06;;;;;;;10.57;9.67;;;18.80;23.50;;;;;;5058511;28;20462;-54
2021/09/26 08:08:36;;;;;;;12.43;9.67;;;19.00;1.00;;;;;;5058585;28;20943;-53
2021/09/26 08:11:04;;;;;;;10.93;9.67;;;19.00;1.00;;;;;;5058920;28;20462;-57
2021/09/26 08:13:37;;;;;;;11.00;9.90;;;19.10;1.00;;;;;;5055738;28;20474;-53
2021/09/26 08:16:06;;;;;;;9.50;8.60;;;19.20;1.00;;;;;;5058316;28;20512;-54
2021/09/26 08:18:33;;;;;;;10.13;8.70;;;19.40;1.00;;;;;;5058564;28;20459;-56
2021/09/26 08:21:00;;;;;;;8.90;8.20;;;19.90;1.00;;;;;;5058373;28;20469;-54
2021/09/26 08:23:27;;;;;;;9.40;8.60;;;20.60;1.00;;;;;;5057889;28;20484;-50
2021/09/26 08:25:54;;;;;;;10.53;9.63;;;21.20;1.00;;;;;;5057978;28;20462;-54
2021/09/26 08:28:23;;;;;;;9.13;8.40;;;21.50;1.00;;;;;;5057407;28;20974;-53
2021/09/26 08:30:53;;;;;;;11.87;8.77;;;21.70;1.00;;;;;;5058532;28;20480;-54
2021/09/26 08:33:24;;;;;;;10.40;9.40;;;22.10;1.00;;;;;;5048657;28;20515;-55
2021/09/26 08:35:51;;;;;;;10.57;9.47;;;22.10;1.00;;;;;;5038083;28;20459;-53
2021/09/26 08:38:18;;;;;;;10.40;9.10;;;22.20;1.00;;;;;;5038042;28;20470;-57
2021/09/26 08:40:48;;;;;;;9.63;8.63;;;22.40;1.00;;;;;;5038264;28;20842;-56
2021/09/26 08:43:20;;;;;;;9.67;8.70;;;22.40;1.00;;;;;;5037988;28;20474;-55
2021/09/26 08:45:51;;;;;;;9.80;8.80;;;22.40;1.00;;;;;;5037685;28;20513;-55
2021/09/26 08:48:20;;;;;;;9.60;8.80;;;22.60;1.00;;;;;;5038103;28;20503;-56
2021/09/26 08:50:50;;;;;;;8.97;8.07;;;22.70;1.00;;;;;;5038409;28;20769;-55
2021/09/26 08:53:18;;;;;;;9.30;8.40;;;22.80;1.00;;;;;;5037902;28;20467;-53
2021/09/26 08:55:45;;;;;;;9.23;8.50;;;23.00;1.00;;;;;;5038127;28;20467;-47
2021/09/26 08:58:12;;;;;;;9.47;8.67;;;23.10;1.00;;;;;;5038043;28;20906;-54
2021/09/26 09:00:39;;;;;;;10.77;8.73;;;23.30;1.00;;;;;;5037743;28;20490;-54
2021/09/26 09:03:14;;;;;;;8.47;7.77;;;23.50;1.00;;;;;;5037709;28;20781;-51
2021/09/26 09:05:43;;;;;;;9.70;9.00;;;24.00;1.00;;;;;;5037149;28;20479;-56
2021/09/26 09:08:14;;;;;;;8.87;8.17;;;24.50;1.00;;;;;;5036668;28;20473;-54
2021/09/26 09:10:46;;;;;;;9.00;8.30;;;24.50;1.00;;;;;;5043079;28;20917;-55
2021/09/26 09:13:18;;;;;;;8.73;7.93;;;24.30;1.00;;;;;;5057507;28;20473;-49
2021/09/26 09:15:54;;;;;;;9.03;7.73;;;24.20;1.00;;;;;;5057587;28;20458;-50
2021/09/26 09:18:22;;;;;;;9.53;8.63;;;24.10;1.00;;;;;;5057554;28;20474;-52
2021/09/26 09:20:50;;;;;;;10.07;9.07;;;23.80;1.00;;;;;;5057198;28;20462;-51
2021/09/26 09:23:21;;;;;;;9.70;8.90;;;23.90;1.00;;;;;;5057294;28;20465;-53
2021/09/26 09:25:55;;;;;;;9.43;8.60;;;24.00;1.00;;;;;;5056925;28;20466;-52
2021/09/26 09:28:25;;;;;;;9.27;8.37;;;23.90;1.00;;;;;;5057308;28;20462;-47
2021/09/26 09:30:53;;;;;;;9.53;8.63;;;24.00;1.00;;;;;;5057090;28;20482;-48
2021/09/26 09:33:22;;;;;;;9.97;9.07;;;24.30;1.00;;;;;;5056654;28;20493;-53
2021/09/26 09:36:03;;;;;;;9.53;8.63;;;24.50;1.00;;;;;;5057219;28;20466;-56
2021/09/26 09:38:38;;;;;;;8.70;8.00;;;24.50;1.00;;;;;;5056758;28;20742;-50
2021/09/26 09:41:05;;;;;;;9.40;8.50;;;24.60;1.00;;;;;;5056890;28;20468;-50
2021/09/26 09:43:45;;;;;;;9.63;8.67;;;24.40;1.00;;;;;;5057072;28;20462;-55
2021/09/26 09:46:14;;;;;;;10.93;9.03;;;24.60;1.00;;;;;;5056964;28;20465;-52
2021/09/26 09:48:41;;;;;;;8.50;7.80;;;25.10;1.00;;;;;;5056727;28;20465;-57
2021/09/26 09:51:11;;;;;;;9.70;8.90;;;25.20;99.90;;;;;;5056679;28;20466;-54
2021/09/26 09:53:44;;;;;;;8.23;7.47;;;25.20;99.90;;;;;;5057106;28;20477;-54
2021/09/26 09:56:18;;;;;;;8.40;7.67;;;25.50;99.90;;;;;;5056992;28;20516;-50
2021/09/26 09:58:47;;;;;;;10.83;7.33;;;25.70;99.90;;;;;;5056790;28;20466;-53
2021/09/26 10:01:17;;;;;;;8.53;7.83;;;25.60;99.90;;;;;;5055928;28;20468;-54
2021/09/26 10:03:52;;;;;;;8.40;7.60;;;25.00;99.90;;;;;;5045662;28;20521;-48
2021/09/26 10:06:28;;;;;;;7.30;6.70;;;24.90;99.90;;;;;;5042818;28;20457;-48
2021/09/26 10:09:00;;;;;;;8.97;7.30;;;25.00;99.90;;;;;;5056479;28;20497;-48
2021/09/26 10:11:29;;;;;;;8.57;7.70;;;25.00;99.90;;;;;;5056216;28;20465;-49
2021/09/26 10:13:57;;;;;;;7.13;6.30;;;25.50;99.90;;;;;;5056838;28;20466;-50
2021/09/26 10:16:25;;;;;;;8.30;7.50;;;25.60;99.90;;;;;;5056003;28;20462;-49
2021/09/26 10:18:53;;;;;;;6.83;6.33;;;25.80;99.90;;;;;;5056146;28;20462;-47
2021/09/26 10:21:21;;;;;;;8.50;6.17;;;26.00;99.90;;;;;;5055198;28;20469;-50
2021/09/26 10:23:50;;;;;;;9.70;7.00;;;26.30;99.90;;;;;;5054488;28;20485;-52
2021/09/26 10:26:21;;;;;;;6.60;6.00;;;26.10;99.90;;;;;;5048765;28;20470;-49
2021/09/26 10:28:55;;;;;;;6.60;6.10;;;26.00;99.90;;;;;;5055767;28;20560;-53
2021/09/26 10:31:25;;;;;;;7.33;6.00;;;26.20;99.90;;;;;;5056371;28;20465;-48
2021/09/26 10:33:52;;;;;;;7.03;6.33;;;26.70;99.90;;;;;;5056275;28;20493;-49
2021/09/26 10:36:22;;;;;;;7.00;5.50;;;26.20;99.90;;;;;;5058754;28;20908;-54
2021/09/26 10:38:51;;;;;;;8.67;5.40;;;26.10;99.90;;;;;;5060286;28;20505;-51
2021/09/26 10:41:20;;;;;;;5.70;5.20;;;26.30;99.90;;;;;;5060095;28;20462;-47
2021/09/26 10:43:47;;;;;;;6.30;5.63;;;26.30;99.90;;;;;;5060646;28;20753;-47
2021/09/26 10:46:20;;;;;;;6.50;5.07;;;26.70;99.90;;;;;;5060254;28;20462;-47
2021/09/26 10:49:14;;;;;;;6.27;5.77;;;26.70;99.90;;;;;;5059945;28;20544;-53
2021/09/26 10:51:52;;;;;;;5.20;4.77;;;26.70;99.90;;;;;;5060734;28;20440;-48
2021/09/26 10:54:37;;;;;;;5.70;5.20;;;26.50;99.90;;;;;;5060135;28;20511;-52
2021/09/26 10:57:23;;;;;;;4.90;4.50;;;26.60;99.90;;;;;;5059498;28;20462;-46
2021/09/26 10:59:54;;;;;;;5.63;5.10;;;27.00;99.90;;;;;;5058947;28;20512;-48
2021/09/26 11:02:53;;;;;;;5.97;5.20;;;27.00;99.90;;;;;;5059866;28;21981;-54
2021/09/26 11:05:43;;;;;;;6.47;5.93;;;26.70;99.90;;;;;;5015127;28;20473;-55
2021/09/26 11:08:14;;;;;;;5.67;5.27;;;26.70;99.90;;;;;;5060119;28;20461;-54
2021/09/26 11:10:47;;;;;;;6.40;5.80;;;26.40;99.90;;;;;;5043565;28;20497;-52
2021/09/26 11:13:31;;;;;;;6.87;4.63;;;26.40;99.90;;;;;;5052485;28;20913;-47
2021/09/26 11:16:04;;;;;;;6.50;4.93;;;26.70;99.90;;;;;;5052912;28;20540;-52
2021/09/26 11:19:15;;;;;;;6.30;5.70;;;26.70;99.90;;;;;;5058062;28;20816;-53
2021/09/26 11:21:59;;;;;;;6.53;5.83;;;26.90;99.90;;;;;;5053889;28;20466;-53
2021/09/26 11:24:38;;;;;;;6.60;6.00;;;27.30;99.90;;;;;;5054166;28;20466;-52
2021/09/26 11:27:09;;;;;;;6.33;5.77;;;27.40;99.90;;;;;;5039569;28;20762;-53
2021/09/26 11:30:28;;;;;;;5.83;5.33;;;27.70;99.90;;;;;;5048910;28;20812;-56
2021/09/26 11:33:08;;;;;;;5.67;5.17;;;27.70;99.90;;;;;;5058071;28;20533;-55
2021/09/26 11:35:38;;;;;;;7.03;5.80;;;27.50;99.90;;;;;;5058508;28;20453;-57
2021/09/26 11:38:19;;;;;;;6.50;6.00;;;27.70;99.90;;;;;;5046659;28;20506;-54
2021/09/26 11:41:07;;;;;;;6.23;5.63;;;27.10;99.90;;;;;;5051133;28;20889;-55
2021/09/26 11:43:37;;;;;;;6.67;5.97;;;26.80;99.90;;;;;;5054935;28;20475;-56
2021/09/26 11:46:20;;;;;;;5.90;5.17;;;27.00;99.90;;;;;;5043474;28;20474;-47
2021/09/26 11:48:49;;;;;;;6.50;6.00;;;27.40;99.90;;;;;;5039137;28;20459;-54
2021/09/26 11:51:18;;;;;;;6.30;5.50;;;27.70;99.90;;;;;;5042495;28;20494;-51
2021/09/26 11:53:47;;;;;;;7.27;5.67;;;27.60;99.90;;;;;;5053014;28;20535;-54
2021/09/26 11:56:25;;;;;;;8.67;5.30;;;27.40;99.90;;;;;;5047631;28;20757;-51
2021/09/26 11:58:57;;;;;;;7.10;5.80;;;27.10;99.90;;;;;;5039032;28;20494;-56
2021/09/26 12:01:32;;;;;;;6.63;6.10;;;27.40;99.90;;;;;;5039015;28;20459;-48
2021/09/26 12:04:18;;;;;;;6.97;6.27;;;27.40;99.90;;;;;;5039170;28;20521;-50
2021/09/26 12:06:51;;;;;;;5.97;5.43;;;26.80;99.90;;;;;;5038512;28;20467;-50
2021/09/26 12:09:36;;;;;;;6.90;6.23;;;26.60;99.90;;;;;;5039010;28;20467;-55
2021/09/26 12:12:05;;;;;;;6.53;6.03;;;26.20;99.90;;;;;;5037870;28;20514;-50
2021/09/26 12:14:33;;;;;;;6.40;5.90;;;25.80;99.90;;;;;;5038081;28;20983;-52
2021/09/26 12:17:04;;;;;;;9.23;6.23;;;25.50;99.90;;;;;;5038058;28;20471;-49
2021/09/26 12:19:34;;;;;;;7.00;6.37;;;25.40;99.90;;;;;;5038080;28;20886;-50
2021/09/26 12:22:04;;;;;;;6.50;5.80;;;25.70;99.90;;;;;;5038173;28;20471;-56
2021/09/26 12:24:44;;;;;;;6.50;5.80;;;25.80;99.90;;;;;;5044732;28;20485;-55
2021/09/26 12:27:22;;;;;;;6.70;5.70;;;25.70;99.90;;;;;;5057528;28;20931;-51
2021/09/26 12:29:55;;;;;;;7.53;5.23;;;25.50;99.90;;;;;;5057359;28;20492;-47
2021/09/26 12:32:28;;;;;;;6.30;5.23;;;24.90;99.90;;;;;;5057411;28;20470;-52
2021/09/26 12:34:57;;;;;;;8.20;5.20;;;24.90;99.90;;;;;;5057817;28;20482;-53
2021/09/26 12:37:29;;;;;;;6.63;5.07;;;24.70;99.90;;;;;;5056661;28;20900;-46
2021/09/26 12:40:01;;;;;;;5.43;4.93;;;24.50;99.90;;;;;;5058188;28;20450;-50
2021/09/26 12:42:32;;;;;;;5.70;5.17;;;24.40;99.90;;;;;;5055364;28;20453;-48
2021/09/26 12:45:15;;;;;;;5.20;4.70;;;24.50;99.90;;;;;;5057534;28;21154;-47
2021/09/26 12:47:43;;;;;;;6.63;5.13;;;25.20;99.90;;;;;;5054799;28;20468;-49
2021/09/26 12:50:12;;;;;;;8.30;5.77;;;25.50;99.90;;;;;;5057282;28;20581;-49
2021/09/26 12:52:41;;;;;;;5.80;4.80;;;25.80;99.90;;;;;;5057016;28;20775;-50
2021/09/26 12:55:19;;;;;;;6.83;4.43;;;25.70;99.90;;;;;;5057085;28;20461;-52
2021/09/26 12:57:47;;;;;;;5.43;4.93;;;25.70;99.90;;;;;;5055224;28;20500;-53
2021/09/26 13:00:23;;;;;;;4.63;4.23;;;25.60;99.90;;;;;;5056334;28;20905;-48
2021/09/26 13:02:55;;;;;;;5.17;4.67;;;26.00;99.90;;;;;;5054918;28;20458;-54
2021/09/26 13:05:31;;;;;;;9.33;4.90;;;25.50;99.90;;;;;;5057184;28;20458;-49
2021/09/26 13:08:04;;;;;;;5.93;5.33;;;25.20;99.90;;;;;;5056202;28;20457;-49